createdAt,value
2022-08-18T00:02:43.574Z,109.01
2022-08-18T00:08:04.191Z,108.91
2022-08-18T00:13:08.759Z,109.14
2022-08-18T00:18:11.681Z,109.20
2022-08-18T00:23:15.077Z,109.33
2022-08-18T00:28:19.823Z,109.52
2022-08-18T00:33:26.962Z,109.48
2022-08-18T00:38:30.034Z,109.24
2022-08-18T00:43:40.063Z,109.42
2022-08-18T00:48:48.435Z,109.63
2022-08-18T00:53:57.274Z,109.50
2022-08-18T00:59:08.245Z,109.46
2022-08-18T01:04:16.688Z,109.51
2022-08-18T01:09:20.311Z,109.77
2022-08-18T01:14:25.111Z,109.85
2022-08-18T01:19:47.182Z,110.11
2022-08-18T01:25:14.204Z,110.11
2022-08-18T01:30:17.644Z,110.09
2022-08-18T01:35:25.787Z,110.20
2022-08-18T01:41:27.425Z,110.47
2022-08-18T01:45:53.975Z,110.29
2022-08-18T01:50:57.380Z,110.43
2022-08-18T01:56:05.593Z,110.29
2022-08-18T02:01:08.584Z,110.11
2022-08-18T02:06:14.871Z,110.58
2022-08-18T02:11:19.407Z,110.45
2022-08-18T02:16:22.489Z,110.38
2022-08-18T02:21:25.573Z,110.47
2022-08-18T02:26:30.097Z,110.53
2022-08-18T02:31:32.996Z,110.80
2022-08-18T02:36:35.949Z,110.58
2022-08-18T02:41:40.654Z,110.68
2022-08-18T02:46:44.006Z,110.94
2022-08-18T02:51:47.214Z,110.95
2022-08-18T02:56:53.141Z,110.76
2022-08-18T03:01:57.374Z,110.95
2022-08-18T03:07:04.123Z,110.91
2022-08-18T03:12:09.391Z,110.94
2022-08-18T03:17:15.441Z,110.99
2022-08-18T03:22:28.411Z,111.26
2022-08-18T03:27:34.109Z,111.07
2022-08-18T03:32:37.167Z,111.20
2022-08-18T03:37:40.913Z,111.46
2022-08-18T03:42:45.422Z,111.23
2022-08-18T03:47:50.377Z,111.26
2022-08-18T03:52:53.985Z,111.49
2022-08-18T04:03:25.330Z,111.52
2022-08-18T04:08:28.242Z,111.17
2022-08-18T04:13:36.706Z,111.16
2022-08-18T04:18:39.751Z,111.38
2022-08-18T04:23:44.129Z,111.88
2022-08-18T04:28:49.304Z,113.35
2022-08-18T04:33:53.045Z,113.95
2022-08-18T04:38:56.829Z,113.53
2022-08-18T04:44:03.808Z,113.65
2022-08-18T04:49:08.260Z,112.79
2022-08-18T04:54:12.543Z,111.90
2022-08-18T04:59:17.354Z,111.16
2022-08-18T05:04:20.671Z,110.87
2022-08-18T05:09:23.666Z,110.29
2022-08-18T05:14:28.701Z,109.91
2022-08-18T05:19:32.453Z,109.47
2022-08-18T05:24:37.310Z,109.20
2022-08-18T05:29:45.706Z,109.01
2022-08-18T05:34:50.347Z,108.90
2022-08-18T05:39:58.926Z,108.52
2022-08-18T05:45:08.030Z,108.49
2022-08-18T05:50:14.083Z,108.23
2022-08-18T05:55:39.830Z,107.62
2022-08-18T06:00:58.771Z,107.11
2022-08-18T06:06:11.142Z,106.97
2022-08-18T06:11:22.779Z,106.90
2022-08-18T06:16:44.571Z,106.47
2022-08-18T06:21:57.414Z,106.54
2022-08-18T06:27:07.895Z,106.37
2022-08-18T06:32:23.392Z,106.43
2022-08-18T06:37:33.879Z,105.95
2022-08-18T06:42:40.377Z,104.84
2022-08-18T06:47:55.037Z,105.85
2022-08-18T06:53:00.619Z,106.60
2022-08-18T06:58:07.875Z,105.71
2022-08-18T07:03:15.760Z,106.64
2022-08-18T07:08:31.031Z,106.21
2022-08-18T07:13:39.580Z,105.72
2022-08-18T07:18:47.354Z,105.72
2022-08-18T07:24:23.198Z,105.91
2022-08-18T07:29:22.627Z,106.24
2022-08-18T07:34:37.440Z,106.22
2022-08-18T07:39:48.460Z,105.48
2022-08-18T07:44:55.277Z,106.54
2022-08-18T07:50:20.548Z,106.25
2022-08-18T07:55:30.271Z,107.03
2022-08-18T08:06:13.540Z,105.85
2022-08-18T08:11:29.001Z,105.51
2022-08-18T08:16:42.560Z,106.24
2022-08-18T08:21:54.077Z,106.18
2022-08-18T08:27:02.463Z,106.06
2022-08-18T08:32:11.236Z,106.27
2022-08-18T08:37:20.606Z,103.95
2022-08-18T08:42:35.394Z,105.14
2022-08-18T08:47:52.370Z,105.02
2022-08-18T08:53:05.239Z,105.62
2022-08-18T08:58:18.972Z,106.34
2022-08-18T09:03:32.108Z,105.82
2022-08-18T09:08:55.151Z,105.15
2022-08-18T09:14:24.683Z,104.67
2022-08-18T09:19:45.975Z,106.52
2022-08-18T09:24:53.120Z,103.96
2022-08-18T09:29:59.330Z,104.04
2022-08-18T09:35:17.577Z,106.82
2022-08-18T09:46:06.102Z,101.61
2022-08-18T09:51:35.008Z,105.14
2022-08-18T09:57:07.614Z,104.25
2022-08-18T10:07:41.942Z,104.65
2022-08-18T10:13:15.792Z,103.43
2022-08-18T10:18:32.461Z,103.78
2022-08-18T10:24:14.593Z,104.38
2022-08-18T10:29:51.733Z,104.76
2022-08-18T10:35:00.707Z,103.18
2022-08-18T10:40:16.363Z,102.59
2022-08-18T10:45:30.902Z,102.08
2022-08-18T10:50:42.565Z,103.70
2022-08-18T10:55:53.863Z,103.06
2022-08-18T11:01:03.699Z,102.84
2022-08-18T11:06:21.138Z,103.24
2022-08-18T11:11:34.487Z,102.88
2022-08-18T11:16:54.408Z,102.69
2022-08-18T11:21:58.873Z,102.43
2022-08-18T11:27:03.810Z,103.57
2022-08-18T11:32:20.208Z,103.43
2022-08-18T11:37:51.600Z,103.78
2022-08-18T11:43:00.351Z,105.21
2022-08-18T11:48:25.110Z,103.81
2022-08-18T11:53:44.186Z,103.15
2022-08-18T11:58:50.513Z,101.32
2022-08-18T12:03:53.843Z,101.84
2022-08-18T12:09:03.093Z,102.49
2022-08-18T12:14:30.377Z,109.10
2022-08-18T12:24:58.298Z,110.46
2022-08-18T12:30:02.467Z,111.66
2022-08-18T12:35:09.495Z,112.16
2022-08-18T12:40:14.693Z,113.06
2022-08-18T12:45:18.090Z,109.89
2022-08-18T12:55:47.561Z,111.87
2022-08-18T13:00:53.865Z,108.17
2022-08-18T13:05:57.067Z,109.88
2022-08-18T13:11:14.513Z,110.51
2022-08-18T13:16:39.090Z,108.16
2022-08-18T13:21:42.917Z,112.22
2022-08-18T13:26:48.675Z,113.00
2022-08-18T13:31:57.833Z,111.49
2022-08-18T13:37:00.919Z,111.89
2022-08-18T13:42:21.715Z,110.38
2022-08-18T13:47:31.448Z,111.40
2022-08-18T13:52:44.646Z,110.81
2022-08-18T13:57:49.905Z,112.12
2022-08-18T14:02:54.055Z,110.54
2022-08-18T14:07:58.724Z,112.53
2022-08-18T14:13:11.985Z,110.10
2022-08-18T14:18:29.247Z,108.39
2022-08-18T14:24:05.902Z,111.19
2022-08-18T14:29:16.510Z,107.15
2022-08-18T14:34:21.832Z,106.96
2022-08-18T14:39:33.377Z,109.26
2022-08-18T14:44:37.749Z,108.05
2022-08-18T14:49:48.035Z,109.65
2022-08-18T14:54:51.851Z,107.45
2022-08-18T14:59:59.770Z,112.06
2022-08-18T15:05:19.228Z,108.65
2022-08-18T15:10:23.359Z,109.09
2022-08-18T15:15:50.819Z,109.81
2022-08-18T15:21:19.566Z,112.00
2022-08-18T15:26:38.750Z,111.68
2022-08-18T15:31:55.458Z,112.46
2022-08-18T15:37:09.562Z,113.24
2022-08-18T15:42:13.873Z,111.90
2022-08-18T15:47:21.038Z,108.20
2022-08-18T15:52:25.948Z,111.02
2022-08-18T15:57:51.882Z,109.62
2022-08-18T16:02:57.797Z,108.43
2022-08-18T16:08:01.490Z,109.49
2022-08-18T16:13:05.811Z,113.32
2022-08-18T16:18:10.841Z,112.82
2022-08-18T16:23:14.017Z,114.60
2022-08-18T16:28:17.119Z,113.35
2022-08-18T16:33:22.134Z,114.22
2022-08-18T16:38:25.952Z,115.88
2022-08-18T16:43:30.386Z,116.30
2022-08-18T16:48:35.195Z,117.05
2022-08-18T16:53:39.780Z,117.18
2022-08-18T16:59:02.349Z,117.40
2022-08-18T17:04:14.691Z,-5.37
2022-08-18T17:09:25.216Z,-5.39
2022-08-18T17:14:31.401Z,-5.47
2022-08-18T17:19:37.745Z,-4.38
2022-08-18T17:24:49.366Z,-2.09
2022-08-18T17:29:58.874Z,-1.80
2022-08-18T17:35:06.331Z,-0.58
2022-08-18T17:40:15.935Z,-0.77
2022-08-18T17:45:21.697Z,-2.13
2022-08-18T17:50:49.603Z,-3.84
2022-08-18T17:56:00.145Z,-2.64
2022-08-18T18:01:06.549Z,-1.96
2022-08-18T18:06:16.846Z,0.42
2022-08-18T18:11:25.635Z,1.62
2022-08-18T18:16:35.562Z,2.58
2022-08-18T18:22:00.119Z,3.09
2022-08-18T18:27:24.358Z,2.52
2022-08-18T18:32:30.609Z,2.60
2022-08-18T18:37:44.016Z,2.58
2022-08-18T18:42:51.269Z,3.19
2022-08-18T18:48:03.749Z,2.92
2022-08-18T18:53:20.140Z,3.65
2022-08-18T18:58:32.722Z,3.95
2022-08-18T19:03:44.191Z,4.24
2022-08-18T19:08:56.410Z,4.71
2022-08-18T19:14:02.961Z,4.60
2022-08-18T19:19:35.962Z,5.44
2022-08-18T19:25:05.484Z,6.21
2022-08-18T19:30:13.657Z,5.96
2022-08-18T19:35:19.898Z,6.70
2022-08-18T19:40:29.359Z,8.01
2022-08-18T19:45:36.909Z,8.45
2022-08-18T19:50:46.122Z,8.68
2022-08-18T19:56:04.896Z,8.87
2022-08-18T20:01:21.134Z,6.84
2022-08-18T20:06:52.863Z,6.95
2022-08-18T20:12:38.756Z,7.63
2022-08-18T20:18:00.812Z,7.84
2022-08-18T20:23:32.294Z,8.55
2022-08-18T20:28:39.189Z,9.72
2022-08-18T20:33:47.113Z,9.69
2022-08-18T20:38:53.887Z,10.05
2022-08-18T20:44:09.400Z,9.40
2022-08-18T20:49:23.201Z,9.96
2022-08-18T20:54:50.245Z,10.03
2022-08-18T21:00:11.215Z,9.83
2022-08-18T21:05:28.019Z,10.39
2022-08-18T21:10:34.663Z,10.15
2022-08-18T21:15:38.840Z,9.72
2022-08-18T21:20:42.230Z,9.88
2022-08-18T21:25:53.777Z,10.65
2022-08-18T21:31:42.965Z,11.09
2022-08-18T21:36:25.592Z,11.75
2022-08-18T21:41:32.582Z,12.21
2022-08-18T21:46:36.024Z,12.06
2022-08-18T21:51:45.756Z,12.23
2022-08-18T21:57:21.069Z,12.15
2022-08-18T22:02:24.249Z,12.36
2022-08-18T22:07:34.998Z,12.71
2022-08-18T22:13:10.104Z,12.61
2022-08-18T22:18:39.884Z,12.42
2022-08-18T22:24:04.644Z,12.41
2022-08-18T22:29:21.841Z,12.72
2022-08-18T22:34:28.837Z,12.71
2022-08-18T22:39:35.203Z,12.70
2022-08-18T22:44:40.602Z,12.91
2022-08-18T22:49:45.461Z,13.26
2022-08-18T22:54:49.552Z,13.15
2022-08-18T22:59:55.426Z,13.13
2022-08-18T23:05:01.880Z,13.47
2022-08-18T23:10:12.528Z,13.56
2022-08-18T23:15:19.493Z,13.70
2022-08-18T23:20:22.765Z,13.90
2022-08-18T23:25:31.014Z,13.83
2022-08-18T23:30:35.681Z,13.73
2022-08-18T23:35:39.769Z,13.66
2022-08-18T23:40:45.208Z,13.32
2022-08-18T23:45:50.276Z,12.88
2022-08-18T23:50:53.163Z,12.39
2022-08-18T23:55:56.043Z,12.15
